createdAt,value
2018-06-11T09:18:53.050Z,64.27
2018-06-11T09:19:54.615Z,64.28
2018-06-11T09:20:15.511Z,64.79
2018-06-11T09:21:17.093Z,64.56
2018-06-11T09:22:17.647Z,63.84
2018-06-11T09:25:47.858Z,64.17
2018-06-11T09:26:51.522Z,64.14
2018-06-11T09:27:48.035Z,66.44
2018-06-11T11:18:39.743Z,36.14
2018-06-11T11:19:41.300Z,60.25
2018-06-11T11:20:41.879Z,61.88
2018-06-11T11:21:42.437Z,62.88
2018-06-11T11:22:42.993Z,60.74
2018-06-11T11:23:43.551Z,61.54
2018-06-11T11:24:44.111Z,60.75
2018-06-11T11:25:44.692Z,61.08
2018-06-11T11:26:35.850Z,61.33
2018-06-11T11:27:37.412Z,61.11
2018-06-11T11:28:37.971Z,60.77
2018-06-11T11:29:38.526Z,60.61
2018-06-11T12:48:25.630Z,54.84
2018-06-11T12:49:01.099Z,55.26
2018-06-11T12:50:02.059Z,55.31
2018-06-11T12:51:03.017Z,55.28
2018-06-11T12:52:03.976Z,55.12
2018-06-11T12:53:04.936Z,55.46
2018-06-11T12:54:05.918Z,55.71
2018-06-11T12:55:06.879Z,56.10
2018-06-11T12:56:07.838Z,55.42
2018-06-11T12:57:08.800Z,55.22
2018-06-11T12:58:09.765Z,55.06
2018-06-11T12:59:10.749Z,55.05
2018-06-11T13:00:11.713Z,55.24
2018-06-11T13:01:12.678Z,55.17
2018-06-11T13:02:13.633Z,54.93
2018-06-11T13:03:14.620Z,55.51
2018-06-11T13:04:15.601Z,55.22
2018-06-11T13:05:16.559Z,55.14
2018-06-11T13:06:17.572Z,55.00
2018-06-11T16:59:35.640Z,64.32
2018-06-11T17:00:36.797Z,64.33
2018-06-11T17:01:36.952Z,64.42
2018-06-11T17:09:13.499Z,71.50
2018-06-11T17:10:14.663Z,71.46
2018-06-11T17:11:14.821Z,71.11
2018-06-11T17:12:15.010Z,71.13
2018-06-11T17:13:15.166Z,71.05
2018-06-11T17:14:15.324Z,70.83
2018-06-11T17:15:15.487Z,70.46
2018-06-11T17:16:15.647Z,70.16
2018-06-11T17:17:15.837Z,70.52
2018-06-11T17:18:15.995Z,70.01
2018-06-11T17:19:16.160Z,69.82
2018-06-11T17:20:16.424Z,71.22
2018-06-11T17:21:15.479Z,72.54
2018-06-11T17:22:16.676Z,72.95
2018-06-11T17:23:16.829Z,73.16
2018-06-11T17:24:16.993Z,73.01
2018-06-11T17:25:17.153Z,73.56
2018-06-11T17:26:17.316Z,73.90
2018-06-11T17:27:17.497Z,73.37
2018-06-11T17:28:17.658Z,73.26
2018-06-11T17:29:17.838Z,72.27
2018-06-11T17:30:17.985Z,71.68
2018-06-11T17:31:18.147Z,71.17
2018-06-11T17:32:18.330Z,70.99
2018-06-11T17:33:18.494Z,71.19
2018-06-11T17:34:18.651Z,72.00
2018-06-11T17:35:18.814Z,72.55
2018-06-11T17:36:18.979Z,72.48
2018-06-11T17:37:19.161Z,72.79
2018-06-11T17:38:19.324Z,72.44
2018-06-11T17:39:19.479Z,71.78
2018-06-11T17:40:19.641Z,71.50
2018-06-11T17:41:19.803Z,71.70
2018-06-11T17:42:19.991Z,72.78
2018-06-11T17:43:20.150Z,73.52
2018-06-11T17:44:20.315Z,73.19
2018-06-11T17:45:20.473Z,73.84
2018-06-11T17:46:20.636Z,74.15
2018-06-11T17:47:20.819Z,74.41
2018-06-11T17:48:20.982Z,74.27
2018-06-11T17:49:21.145Z,74.37
2018-06-11T17:50:21.310Z,74.66
2018-06-11T17:51:21.491Z,74.62
2018-06-11T17:52:21.649Z,74.45
2018-06-11T17:53:21.815Z,74.13
2018-06-11T17:54:22.012Z,74.80
2018-06-11T17:55:21.134Z,73.53
2018-06-11T17:56:22.316Z,73.32
2018-06-11T17:57:22.495Z,73.55
2018-06-11T17:58:22.639Z,72.90
2018-06-11T17:59:22.799Z,72.36
2018-06-11T18:00:23.051Z,72.20
2018-06-11T18:01:22.145Z,72.25
2018-06-11T18:02:23.336Z,72.57
2018-06-11T18:03:22.467Z,72.18
2018-06-11T18:04:23.645Z,72.69
2018-06-11T18:05:22.804Z,74.32
2018-06-11T18:06:22.989Z,73.91
2018-06-11T18:07:24.144Z,74.37
2018-06-11T18:08:24.333Z,74.64
2018-06-11T18:09:24.485Z,74.02
2018-06-11T18:10:24.634Z,73.45
2018-06-11T18:11:24.812Z,73.85
2018-06-11T18:12:24.981Z,73.87
2018-06-11T18:13:25.136Z,73.62
2018-06-11T18:14:25.298Z,73.19
2018-06-11T18:15:25.458Z,72.86
2018-06-11T18:16:25.650Z,72.45
2018-06-11T18:17:25.805Z,72.31
2018-06-11T18:18:25.965Z,72.32
2018-06-11T18:19:26.125Z,72.39
2018-06-11T18:20:26.290Z,73.18
2018-06-11T18:21:26.471Z,73.78
2018-06-11T18:22:26.636Z,72.98
2018-06-11T18:23:26.797Z,72.47
2018-06-11T18:24:26.955Z,72.15
2018-06-11T18:25:27.122Z,73.16
2018-06-11T18:26:27.393Z,73.26
2018-06-11T18:27:26.463Z,72.78
2018-06-11T18:28:27.630Z,72.73
2018-06-11T18:29:27.788Z,71.98
2018-06-11T18:30:27.955Z,71.67
2018-06-11T18:31:28.117Z,72.30
2018-06-11T18:32:28.301Z,71.97
2018-06-11T18:33:28.460Z,72.43
2018-06-11T18:34:28.634Z,72.42
2018-06-11T18:35:28.857Z,72.22
2018-06-11T18:36:27.944Z,71.89
2018-06-11T18:37:29.132Z,71.69
2018-06-11T18:38:29.291Z,72.83
2018-06-11T18:39:29.453Z,72.85
2018-06-11T18:40:29.616Z,73.56
2018-06-11T18:41:29.775Z,74.39
2018-06-11T18:42:29.957Z,74.68
2018-06-11T18:43:30.121Z,74.28
2018-06-11T18:44:30.279Z,74.01
2018-06-11T18:45:30.444Z,72.90
2018-06-11T18:46:30.603Z,72.36
2018-06-11T18:47:30.765Z,72.30
2018-06-11T18:48:30.947Z,72.27
2018-06-11T18:49:30.109Z,72.56
2018-06-11T18:50:31.270Z,72.66
2018-06-11T18:51:31.442Z,72.54
2018-06-11T18:52:31.601Z,73.15
2018-06-11T18:53:31.783Z,73.87
2018-06-11T18:54:31.941Z,73.17
2018-06-11T18:55:32.100Z,72.27
2018-06-11T18:56:32.260Z,71.44
2018-06-11T18:57:32.419Z,71.10
2018-06-11T18:58:32.606Z,71.16
2018-06-11T18:59:32.767Z,71.18
2018-06-11T19:00:32.927Z,70.56
2018-06-11T19:01:33.090Z,70.57
2018-06-11T19:02:33.252Z,70.69
2018-06-11T19:03:33.665Z,70.27
2018-06-11T19:11:45.862Z,70.10
2018-06-11T19:12:47.024Z,70.04
2018-06-11T19:13:47.209Z,70.13
2018-06-11T19:14:47.366Z,70.11
2018-06-11T19:15:47.526Z,70.01
2018-06-11T19:16:47.687Z,70.52
2018-06-11T19:17:47.848Z,70.88
2018-06-11T19:18:48.084Z,71.05
2018-06-11T19:19:47.194Z,71.10
2018-06-11T19:20:48.354Z,70.85
2018-06-11T19:21:48.515Z,70.79
2018-06-11T19:22:48.677Z,70.87
2018-06-11T19:23:48.835Z,71.55
2018-06-11T19:24:49.024Z,71.67
2018-06-11T19:25:49.182Z,72.30
2018-06-11T19:26:49.347Z,73.08
2018-06-11T19:27:49.504Z,72.19
2018-06-11T19:28:49.666Z,72.87
2018-06-11T19:29:49.852Z,73.05
2018-06-11T19:30:50.013Z,72.30
2018-06-11T19:31:50.174Z,72.53
2018-06-11T19:32:50.336Z,73.07
2018-06-11T19:33:50.498Z,73.44
2018-06-11T19:34:50.706Z,71.71
2018-06-11T19:35:50.893Z,72.13
2018-06-11T19:36:50.012Z,71.56
2018-06-11T19:37:51.170Z,70.53
2018-06-11T19:38:51.332Z,70.52
2018-06-11T19:39:51.514Z,70.29
2018-06-11T19:40:51.790Z,69.94
2018-06-11T19:41:50.834Z,70.51
2018-06-11T19:42:51.997Z,70.61
2018-06-11T19:43:52.165Z,69.75
2018-06-11T19:44:52.320Z,70.20
2018-06-11T19:45:51.503Z,69.98
2018-06-11T19:46:52.668Z,68.83
2018-06-11T19:47:52.833Z,69.38
2018-06-11T19:48:52.991Z,69.13
2018-06-11T19:49:53.237Z,68.98
2018-06-11T19:50:52.420Z,68.80
2018-06-11T19:51:52.500Z,68.34
2018-06-11T19:52:53.662Z,68.50
2018-06-11T19:53:53.821Z,68.11
2018-06-11T19:54:53.983Z,68.29
2018-06-11T19:55:54.172Z,68.21
2018-06-11T19:56:54.338Z,68.11
2018-06-11T19:57:54.499Z,68.03
2018-06-11T19:58:54.657Z,67.79
2018-06-11T19:59:54.859Z,67.76
2018-06-11T20:00:53.985Z,67.71
2018-06-11T20:01:55.169Z,67.37
2018-06-11T20:02:55.391Z,68.22
2018-06-11T20:03:54.490Z,67.90
2018-06-11T20:04:55.655Z,68.90
2018-06-11T20:05:55.811Z,68.53
2018-06-11T20:06:55.999Z,68.00
2018-06-11T20:07:56.160Z,67.90
2018-06-11T20:08:56.323Z,68.33
2018-06-11T20:09:56.482Z,68.49
2018-06-11T20:10:56.648Z,68.87
2018-06-11T20:11:56.831Z,68.71
2018-06-11T20:12:57.240Z,68.20
2018-06-11T20:13:56.325Z,68.42
2018-06-11T20:14:57.483Z,68.61
2018-06-11T20:15:57.644Z,68.58
2018-06-11T20:16:56.805Z,68.89
2018-06-11T20:17:57.989Z,68.72
2018-06-11T20:18:58.155Z,68.50
2018-06-11T20:19:58.312Z,68.92
2018-06-11T20:20:58.476Z,69.33
2018-06-11T20:21:58.647Z,69.40
2018-06-11T20:22:58.832Z,69.25
2018-06-11T20:23:58.989Z,69.17
2018-06-11T20:24:59.152Z,68.53
2018-06-11T20:25:59.314Z,68.57
2018-06-11T20:26:59.474Z,68.50
2018-06-11T20:27:59.636Z,68.28
2018-06-11T20:28:59.821Z,67.87
2018-06-11T20:29:59.981Z,68.40
2018-06-11T20:31:00.146Z,68.75
2018-06-11T20:32:00.303Z,68.84
2018-06-11T20:33:00.478Z,68.23
2018-06-11T20:34:00.659Z,68.15
2018-06-11T20:35:00.816Z,68.27
2018-06-11T20:36:00.984Z,68.09
2018-06-11T20:37:01.138Z,67.58
2018-06-11T20:38:01.302Z,67.40
2018-06-11T20:39:01.460Z,67.50
2018-06-11T20:40:01.643Z,67.37
2018-06-11T20:41:01.811Z,67.41
2018-06-11T20:42:01.969Z,68.38
2018-06-11T20:43:02.132Z,69.22
2018-06-11T20:44:02.293Z,69.86
2018-06-11T20:45:02.482Z,70.53
2018-06-11T20:46:02.640Z,69.65
2018-06-11T20:47:02.805Z,69.76
2018-06-11T20:48:02.972Z,70.49
2018-06-11T20:49:03.131Z,70.45
2018-06-11T20:50:03.462Z,70.75
2018-06-11T20:51:02.578Z,70.24
2018-06-11T20:52:03.736Z,70.09
2018-06-11T20:53:03.898Z,69.66
2018-06-11T20:54:04.056Z,69.75
2018-06-11T20:55:04.241Z,69.31
2018-06-11T20:56:04.406Z,70.13
2018-06-11T20:57:04.563Z,69.61
2018-06-11T20:58:04.729Z,69.86
2018-06-11T20:59:04.889Z,69.45
2018-06-11T21:00:05.074Z,68.96
2018-06-11T21:01:05.237Z,69.07
2018-06-11T21:02:05.397Z,68.41
2018-06-11T21:03:05.554Z,68.41
2018-06-11T21:04:05.719Z,68.72
2018-06-11T21:05:05.883Z,68.44
2018-06-11T21:06:06.066Z,68.04
2018-06-11T21:07:06.236Z,68.69
2018-06-11T21:08:06.645Z,68.64
2018-06-11T21:14:10.279Z,70.23
2018-06-11T21:15:11.439Z,70.27
2018-06-11T21:16:11.622Z,71.08
2018-06-11T21:17:11.785Z,71.55
2018-06-11T21:18:11.940Z,71.58
2018-06-11T21:19:12.101Z,71.83
2018-06-11T21:20:12.261Z,72.15
2018-06-11T21:21:12.422Z,72.71
2018-06-11T21:22:12.609Z,72.27
2018-06-11T21:23:12.771Z,71.59
2018-06-11T21:24:12.986Z,70.54
2018-06-11T21:25:12.092Z,69.99
2018-06-11T21:26:13.250Z,69.45
2018-06-11T21:27:13.436Z,69.57
2018-06-11T21:28:13.597Z,69.29
2018-06-11T21:29:13.759Z,69.31
2018-06-11T21:30:13.918Z,69.00
2018-06-11T21:31:14.080Z,69.82
2018-06-11T21:32:14.264Z,70.16
2018-06-11T21:33:14.432Z,69.38
2018-06-11T21:34:14.591Z,69.12
2018-06-11T21:35:14.770Z,69.08
2018-06-11T21:36:14.911Z,69.01
2018-06-11T21:37:15.100Z,69.56
2018-06-11T21:38:15.261Z,69.88
2018-06-11T21:39:15.423Z,70.36
2018-06-11T21:40:15.583Z,70.20
2018-06-11T21:41:15.747Z,70.91
2018-06-11T21:42:15.944Z,70.49
2018-06-11T21:43:16.103Z,70.61
2018-06-11T21:44:16.262Z,70.13
2018-06-11T21:45:16.421Z,69.96
2018-06-11T21:46:16.580Z,70.02
2018-06-11T21:47:16.743Z,69.31
2018-06-11T21:48:16.924Z,69.06
2018-06-11T21:49:17.089Z,68.95
2018-06-11T21:50:17.246Z,68.95
2018-06-11T21:51:17.410Z,69.55
2018-06-11T21:52:17.579Z,69.58
2018-06-11T21:53:17.759Z,69.96
2018-06-11T21:54:17.918Z,69.93
2018-06-11T21:55:18.083Z,70.03
2018-06-11T21:56:18.239Z,70.63
2018-06-11T21:57:18.407Z,70.80
2018-06-11T21:58:18.585Z,70.83
2018-06-11T21:59:18.749Z,70.73
2018-06-11T22:00:18.908Z,70.32
2018-06-11T22:01:19.069Z,70.62
2018-06-11T22:02:19.231Z,69.93
2018-06-11T22:03:19.401Z,69.13
2018-06-11T22:04:18.577Z,69.56
2018-06-11T22:05:19.736Z,69.37
2018-06-11T22:06:19.897Z,68.75
2018-06-11T22:07:20.058Z,69.26
2018-06-11T22:08:20.226Z,69.65
2018-06-11T22:09:20.401Z,69.23
2018-06-11T22:10:20.565Z,69.13
2018-06-11T22:11:20.724Z,69.69
2018-06-11T22:12:20.887Z,69.97
2018-06-11T22:13:21.049Z,69.68
2018-06-11T22:14:21.231Z,69.45
2018-06-11T22:15:21.401Z,69.88
2018-06-11T22:16:21.555Z,70.89
2018-06-11T22:17:21.726Z,71.14
2018-06-11T22:18:21.883Z,70.09
2018-06-11T22:19:22.041Z,69.75
2018-06-11T22:20:22.224Z,69.30
2018-06-11T22:21:22.387Z,69.68
2018-06-11T22:22:21.545Z,69.95
2018-06-11T22:23:22.707Z,69.52
2018-06-11T22:24:22.888Z,69.19
2018-06-11T22:25:23.053Z,69.70
2018-06-11T22:26:23.213Z,69.71
2018-06-11T22:27:23.376Z,70.18
2018-06-11T22:28:23.541Z,70.92
2018-06-11T22:29:23.696Z,70.69
2018-06-11T22:30:23.949Z,69.83
2018-06-11T22:31:23.043Z,69.53
2018-06-11T22:32:24.204Z,68.91
